createdAt,value
2018-02-03T00:00:46.857Z,3.94
2018-02-03T00:01:46.875Z,4.00
2018-02-03T00:02:46.899Z,4.02
2018-02-03T00:03:46.909Z,4.02
2018-02-03T00:04:46.933Z,4.15
2018-02-03T00:05:46.973Z,4.04
2018-02-03T00:06:46.968Z,4.04
2018-02-03T00:07:46.980Z,4.02
2018-02-03T00:08:47.001Z,4.03
2018-02-03T00:09:47.021Z,4.08
2018-02-03T00:10:47.032Z,4.04
2018-02-03T00:11:47.050Z,4.10
2018-02-03T00:12:47.066Z,4.03
2018-02-03T00:13:47.085Z,3.93
2018-02-03T00:14:47.104Z,4.07
2018-02-03T00:15:47.124Z,4.03
2018-02-03T00:16:47.137Z,4.07
2018-02-03T00:17:47.161Z,4.10
2018-02-03T00:18:47.173Z,4.08
2018-02-03T00:19:47.197Z,4.04
2018-02-03T00:20:47.208Z,4.08
2018-02-03T00:21:47.233Z,4.12
2018-02-03T00:22:47.245Z,4.08
2018-02-03T00:23:47.268Z,4.04
2018-02-03T00:24:47.278Z,4.08
2018-02-03T00:25:47.303Z,4.08
2018-02-03T00:26:47.320Z,3.94
2018-02-03T00:27:47.338Z,4.02
2018-02-03T00:28:47.353Z,4.03
2018-02-03T00:29:47.374Z,3.94
2018-02-03T00:30:47.384Z,4.04
2018-02-03T00:31:47.403Z,3.94
2018-02-03T00:32:47.425Z,3.93
2018-02-03T00:33:47.442Z,4.10
2018-02-03T00:34:47.454Z,4.04
2018-02-03T00:35:47.473Z,4.03
2018-02-03T00:36:47.494Z,3.99
2018-02-03T00:37:47.512Z,4.03
2018-02-03T00:38:47.525Z,3.99
2018-02-03T00:39:47.543Z,3.96
2018-02-03T00:40:47.565Z,4.03
2018-02-03T00:41:47.584Z,4.07
2018-02-03T00:42:47.603Z,4.08
2018-02-03T00:43:47.613Z,4.08
2018-02-03T00:44:47.630Z,4.03
2018-02-03T00:45:47.653Z,4.07
2018-02-03T00:46:47.667Z,4.02
2018-02-03T00:47:47.690Z,4.03
2018-02-03T00:48:47.702Z,3.99
2018-02-03T00:49:47.719Z,4.07
2018-02-03T00:50:47.743Z,4.02
2018-02-03T00:51:47.762Z,4.02
2018-02-03T00:52:47.771Z,4.08
2018-02-03T00:53:47.790Z,4.04
2018-02-03T00:54:47.814Z,4.03
2018-02-03T00:55:47.831Z,3.96
2018-02-03T00:56:47.847Z,4.02
2018-02-03T00:57:47.860Z,3.96
2018-02-03T00:58:47.885Z,4.00
2018-02-03T00:59:47.897Z,3.94
2018-02-03T01:00:47.913Z,4.03
2018-02-03T01:01:47.936Z,3.97
2018-02-03T01:02:47.955Z,3.89
2018-02-03T01:03:47.977Z,4.04
2018-02-03T01:04:47.986Z,3.97
2018-02-03T01:05:48.013Z,4.07
2018-02-03T01:06:48.019Z,4.02
2018-02-03T01:07:48.038Z,4.04
2018-02-03T01:08:48.060Z,3.99
2018-02-03T01:09:48.078Z,4.07
2018-02-03T01:10:48.091Z,4.07
2018-02-03T01:11:48.110Z,4.04
2018-02-03T01:12:48.131Z,4.07
2018-02-03T01:13:48.150Z,4.02
2018-02-03T01:14:48.162Z,4.08
2018-02-03T01:15:48.180Z,3.97
2018-02-03T01:16:48.198Z,4.04
2018-02-03T01:17:48.215Z,4.04
2018-02-03T01:18:48.234Z,4.07
2018-02-03T01:19:48.257Z,4.02
2018-02-03T01:20:48.267Z,4.04
2018-02-03T01:21:48.286Z,4.03
2018-02-03T01:22:48.310Z,4.02
2018-02-03T01:23:48.323Z,4.02
2018-02-03T01:24:48.345Z,4.04
2018-02-03T01:25:48.356Z,4.02
2018-02-03T01:26:48.381Z,4.04
2018-02-03T01:27:48.393Z,4.00
2018-02-03T01:28:48.416Z,3.97
2018-02-03T01:29:48.427Z,4.10
2018-02-03T01:30:48.455Z,4.03
2018-02-03T01:31:48.469Z,4.04
2018-02-03T01:32:48.487Z,3.96
2018-02-03T01:33:48.505Z,4.07
2018-02-03T01:34:48.524Z,3.90
2018-02-03T01:35:48.536Z,3.92
2018-02-03T01:36:48.558Z,3.96
2018-02-03T01:37:48.576Z,3.92
2018-02-03T01:38:48.589Z,3.92
2018-02-03T01:39:48.614Z,3.93
2018-02-03T01:40:48.624Z,3.85
2018-02-03T01:41:48.645Z,3.79
2018-02-03T01:42:48.660Z,3.74
2018-02-03T01:43:48.683Z,3.72
2018-02-03T01:44:48.695Z,3.78
2018-02-03T01:45:48.718Z,3.72
2018-02-03T01:46:48.736Z,3.69
2018-02-03T01:47:48.748Z,3.57
2018-02-03T01:48:48.765Z,3.51
2018-02-03T01:49:48.789Z,3.69
2018-02-03T01:50:48.801Z,3.69
2018-02-03T01:51:48.825Z,3.60
2018-02-03T01:52:48.835Z,3.61
2018-02-03T01:53:48.859Z,3.54
2018-02-03T01:54:48.872Z,3.66
2018-02-03T01:55:48.889Z,3.72
2018-02-03T01:56:48.912Z,3.69
2018-02-03T01:57:48.929Z,3.60
2018-02-03T01:58:48.942Z,3.57
2018-02-03T01:59:48.960Z,3.58
2018-02-03T02:00:48.983Z,3.54
2018-02-03T02:01:48.999Z,3.49
2018-02-03T02:02:49.012Z,3.54
2018-02-03T02:03:49.032Z,3.54
2018-02-03T02:04:49.052Z,3.54
2018-02-03T02:05:49.070Z,3.49
2018-02-03T02:06:49.081Z,3.56
2018-02-03T02:07:49.099Z,3.51
2018-02-03T02:08:49.120Z,3.54
2018-02-03T02:09:49.139Z,3.54
2018-02-03T02:10:49.153Z,3.49
2018-02-03T02:11:49.174Z,3.51
2018-02-03T02:12:49.185Z,3.53
2018-02-03T02:13:49.208Z,3.56
2018-02-03T02:14:49.221Z,3.49
2018-02-03T02:15:49.244Z,3.45
2018-02-03T02:16:49.255Z,3.49
2018-02-03T02:17:49.278Z,3.49
2018-02-03T02:18:49.289Z,3.43
2018-02-03T02:19:49.313Z,3.48
2018-02-03T02:20:49.324Z,3.39
2018-02-03T02:21:49.347Z,3.48
2018-02-03T02:22:49.359Z,3.43
2018-02-03T02:23:49.381Z,3.39
2018-02-03T02:24:49.394Z,3.39
2018-02-03T02:25:49.411Z,3.34
2018-02-03T02:26:49.434Z,3.34
2018-02-03T02:27:49.445Z,3.30
2018-02-03T02:28:49.470Z,3.29
2018-02-03T02:29:49.480Z,3.30
2018-02-03T02:30:49.502Z,3.30
2018-02-03T02:31:49.515Z,3.26
2018-02-03T02:32:49.535Z,3.23
2018-02-03T02:33:49.549Z,3.23
2018-02-03T02:34:49.572Z,3.24
2018-02-03T02:35:49.586Z,3.26
2018-02-03T02:36:49.605Z,3.30
2018-02-03T02:37:49.617Z,3.24
2018-02-03T02:38:49.641Z,3.37
2018-02-03T02:39:49.653Z,3.29
2018-02-03T02:40:49.675Z,3.27
2018-02-03T02:41:49.691Z,3.30
2018-02-03T02:42:49.703Z,3.30
2018-02-03T02:43:49.722Z,3.26
2018-02-03T02:44:49.742Z,3.23
2018-02-03T02:45:49.770Z,3.19
2018-02-03T02:46:49.772Z,3.35
2018-02-03T02:47:49.790Z,3.37
2018-02-03T02:48:49.812Z,3.30
2018-02-03T02:49:49.828Z,3.30
2018-02-03T02:50:49.841Z,3.29
2018-02-03T02:51:49.859Z,3.21
2018-02-03T02:52:49.881Z,3.37
2018-02-03T02:53:49.898Z,3.21
2018-02-03T02:54:49.910Z,3.32
2018-02-03T02:55:49.928Z,3.24
2018-02-03T02:56:49.949Z,3.26
2018-02-03T02:57:49.961Z,3.21
2018-02-03T02:58:49.984Z,3.29
2018-02-03T02:59:50.002Z,3.29
2018-02-03T03:00:50.013Z,3.27
2018-02-03T03:01:50.031Z,3.29
2018-02-03T03:02:50.053Z,3.30
2018-02-03T03:03:50.071Z,3.29
2018-02-03T03:04:50.081Z,3.26
2018-02-03T03:05:50.105Z,3.29
2018-02-03T03:06:50.115Z,3.27
2018-02-03T03:07:50.134Z,3.30
2018-02-03T03:08:50.156Z,3.26
2018-02-03T03:09:50.173Z,3.24
2018-02-03T03:10:50.184Z,3.23
2018-02-03T03:11:50.204Z,3.19
2018-02-03T03:12:50.225Z,3.17
2018-02-03T03:13:50.242Z,3.08
2018-02-03T03:14:50.254Z,3.08
2018-02-03T03:15:50.273Z,3.17
2018-02-03T03:16:50.298Z,3.14
2018-02-03T03:17:50.311Z,3.09
2018-02-03T03:18:50.322Z,3.08
2018-02-03T03:19:50.339Z,3.13
2018-02-03T03:20:50.362Z,3.14
2018-02-03T03:21:50.380Z,3.20
2018-02-03T03:22:50.391Z,3.17
2018-02-03T03:23:50.415Z,3.16
2018-02-03T03:24:50.424Z,3.13
2018-02-03T03:25:50.449Z,3.19
2018-02-03T03:26:50.460Z,3.09
2018-02-03T03:27:50.482Z,3.19
2018-02-03T03:28:50.493Z,3.19
2018-02-03T03:29:50.517Z,3.09
2018-02-03T03:30:50.528Z,3.14
2018-02-03T03:31:50.552Z,3.17
2018-02-03T03:32:50.562Z,3.17
2018-02-03T03:33:50.584Z,3.14
2018-02-03T03:34:50.596Z,3.17
2018-02-03T03:35:50.620Z,3.23
2018-02-03T03:36:50.635Z,3.19
2018-02-03T03:37:50.647Z,3.17
2018-02-03T03:38:50.672Z,3.19
2018-02-03T03:39:50.684Z,3.17
2018-02-03T03:40:50.705Z,3.17
2018-02-03T03:41:50.715Z,3.17
2018-02-03T03:42:50.739Z,3.13
2018-02-03T03:43:50.751Z,3.13
2018-02-03T03:44:50.773Z,3.14
2018-02-03T03:45:50.784Z,3.11
2018-02-03T03:46:50.805Z,3.08
2018-02-03T03:47:50.818Z,3.09
2018-02-03T03:48:50.841Z,3.06
2018-02-03T03:49:50.853Z,3.13
2018-02-03T03:50:50.875Z,3.08
2018-02-03T03:51:50.886Z,3.14
2018-02-03T03:52:50.910Z,3.09
2018-02-03T03:53:50.925Z,3.05
2018-02-03T03:54:50.938Z,3.03
2018-02-03T03:55:50.955Z,3.13
2018-02-03T03:56:50.976Z,3.14
2018-02-03T03:57:50.994Z,3.08
2018-02-03T03:58:51.008Z,3.09
2018-02-03T03:59:51.028Z,3.21
2018-02-03T04:00:51.045Z,3.17
2018-02-03T04:01:51.063Z,3.19
2018-02-03T04:02:51.078Z,3.14
2018-02-03T04:03:51.090Z,3.09
2018-02-03T04:04:51.111Z,3.06
2018-02-03T04:05:51.130Z,3.13
2018-02-03T04:06:51.141Z,3.19
2018-02-03T04:07:51.159Z,3.14
2018-02-03T04:08:51.181Z,3.20
2018-02-03T04:09:51.198Z,3.27
2018-02-03T04:10:51.209Z,3.19
2018-02-03T04:11:51.233Z,3.19
2018-02-03T04:12:51.244Z,3.06
2018-02-03T04:13:51.267Z,3.13
2018-02-03T04:14:51.278Z,3.21
2018-02-03T04:15:51.300Z,3.20
2018-02-03T04:16:51.311Z,3.16
2018-02-03T04:17:51.338Z,3.20
2018-02-03T04:18:51.352Z,3.16
2018-02-03T04:19:51.369Z,3.19
2018-02-03T04:20:51.385Z,3.20
2018-02-03T04:21:51.403Z,3.14
2018-02-03T04:22:51.421Z,3.19
2018-02-03T04:23:51.432Z,3.14
2018-02-03T04:24:51.454Z,3.19
2018-02-03T04:25:51.493Z,3.14
2018-02-03T04:26:51.482Z,3.13
2018-02-03T04:27:51.500Z,3.19
2018-02-03T04:28:51.523Z,3.17
2018-02-03T04:29:51.540Z,3.14
2018-02-03T04:30:51.551Z,3.19
2018-02-03T04:31:51.569Z,3.17
2018-02-03T04:32:51.591Z,3.16
2018-02-03T04:33:51.603Z,3.19
2018-02-03T04:34:51.626Z,3.19
2018-02-03T04:35:51.638Z,3.27
2018-02-03T04:36:51.655Z,3.21
2018-02-03T04:37:51.678Z,3.21
2018-02-03T04:38:51.696Z,3.19
2018-02-03T04:39:51.712Z,3.27
2018-02-03T04:40:51.723Z,3.29
2018-02-03T04:41:51.747Z,3.27
2018-02-03T04:42:51.759Z,3.24
2018-02-03T04:43:51.774Z,3.23
2018-02-03T04:44:51.795Z,3.27
2018-02-03T04:45:51.813Z,3.21
2018-02-03T04:46:51.826Z,3.30
2018-02-03T04:47:51.844Z,3.21
2018-02-03T04:48:51.865Z,3.24
2018-02-03T04:49:51.883Z,3.19
2018-02-03T04:50:51.901Z,3.19
2018-02-03T04:51:51.918Z,3.16
2018-02-03T04:52:51.934Z,3.20
2018-02-03T04:53:51.952Z,3.17
2018-02-03T04:54:51.964Z,3.17
2018-02-03T04:55:51.982Z,3.20
2018-02-03T04:56:51.997Z,3.21
2018-02-03T04:57:52.015Z,3.21
2018-02-03T04:58:52.039Z,3.17
2018-02-03T04:59:52.052Z,3.20
2018-02-03T05:00:52.072Z,3.13
2018-02-03T05:01:52.084Z,3.09
2018-02-03T05:02:52.107Z,3.13
2018-02-03T05:03:52.121Z,3.16
2018-02-03T05:04:52.140Z,3.13
2018-02-03T05:05:52.152Z,3.08
2018-02-03T05:06:52.171Z,3.16
2018-02-03T05:07:52.188Z,3.09
2018-02-03T05:08:52.208Z,3.06
2018-02-03T05:09:52.221Z,3.09
2018-02-03T05:10:52.262Z,3.09
2018-02-03T05:11:52.254Z,3.03
2018-02-03T05:12:52.277Z,3.11
2018-02-03T05:13:52.295Z,3.08
2018-02-03T05:14:52.306Z,3.13
2018-02-03T05:15:52.324Z,3.14
2018-02-03T05:16:52.346Z,3.06
2018-02-03T05:17:52.364Z,3.03
2018-02-03T05:18:52.375Z,3.09
2018-02-03T05:19:52.392Z,3.09
2018-02-03T05:20:52.415Z,3.05
2018-02-03T05:21:52.430Z,3.09
2018-02-03T05:22:52.447Z,3.11
2018-02-03T05:23:52.466Z,3.03
2018-02-03T05:24:52.489Z,3.13
2018-02-03T05:25:52.500Z,3.06
2018-02-03T05:26:52.517Z,3.08
2018-02-03T05:27:52.543Z,3.05
2018-02-03T05:28:52.551Z,3.09
2018-02-03T05:29:52.562Z,3.08
2018-02-03T05:30:52.585Z,3.08
2018-02-03T05:31:52.602Z,3.06
2018-02-03T05:32:52.614Z,3.08
2018-02-03T05:33:52.632Z,3.09
2018-02-03T05:34:52.653Z,3.08
2018-02-03T05:35:52.671Z,3.03
2018-02-03T05:36:52.682Z,3.14
2018-02-03T05:37:52.705Z,3.13
2018-02-03T05:38:52.722Z,3.05
2018-02-03T05:39:52.733Z,3.01
2018-02-03T05:40:52.755Z,2.98
2018-02-03T05:41:52.772Z,3.03
2018-02-03T05:42:52.785Z,2.98
2018-02-03T05:43:52.801Z,2.91
2018-02-03T05:44:52.818Z,3.01
2018-02-03T05:45:52.836Z,3.02
2018-02-03T05:46:52.863Z,2.88
2018-02-03T05:47:52.869Z,2.93
2018-02-03T05:48:52.891Z,2.95
2018-02-03T05:49:52.902Z,2.90
2018-02-03T05:50:52.926Z,2.91
2018-02-03T05:51:52.937Z,2.95
2018-02-03T05:52:52.958Z,2.88
2018-02-03T05:53:52.975Z,2.90
2018-02-03T05:54:52.993Z,2.91
2018-02-03T05:55:53.005Z,2.85
2018-02-03T05:56:53.026Z,2.93
2018-02-03T05:57:53.043Z,2.90
2018-02-03T05:58:53.056Z,2.93
2018-02-03T05:59:53.073Z,2.81
2018-02-03T06:00:53.087Z,2.83
2018-02-03T06:01:53.111Z,2.85
2018-02-03T06:02:53.123Z,2.85
2018-02-03T06:03:53.145Z,2.87
2018-02-03T06:04:53.155Z,2.88
2018-02-03T06:05:53.177Z,2.90
2018-02-03T06:06:53.188Z,2.90
2018-02-03T06:07:53.212Z,2.88
2018-02-03T06:08:53.222Z,2.95
2018-02-03T06:09:53.242Z,2.90
2018-02-03T06:10:53.255Z,2.91
2018-02-03T06:11:53.273Z,2.78
2018-02-03T06:12:53.295Z,2.91
2018-02-03T06:13:53.306Z,2.88
2018-02-03T06:14:53.380Z,2.76
2018-02-03T06:15:53.342Z,2.77
2018-02-03T06:16:53.356Z,2.87
2018-02-03T06:17:53.374Z,2.87
2018-02-03T06:18:53.400Z,2.81
2018-02-03T06:19:53.407Z,2.76
2018-02-03T06:20:53.429Z,2.76
2018-02-03T06:21:53.442Z,2.70
2018-02-03T06:22:53.462Z,2.76
2018-02-03T06:23:53.474Z,2.80
2018-02-03T06:24:53.547Z,2.84
2018-02-03T06:25:53.509Z,2.90
2018-02-03T06:26:53.529Z,2.73
2018-02-03T06:27:53.541Z,2.84
2018-02-03T06:28:53.563Z,2.80
2018-02-03T06:29:53.574Z,2.81
2018-02-03T06:30:53.597Z,2.87
2018-02-03T06:31:53.608Z,2.88
2018-02-03T06:32:53.630Z,2.80
2018-02-03T06:33:53.647Z,2.80
2018-02-03T06:34:53.658Z,2.84
2018-02-03T06:35:53.676Z,2.73
2018-02-03T06:36:53.697Z,2.70
2018-02-03T06:37:53.714Z,2.67
2018-02-03T06:38:53.726Z,2.65
2018-02-03T06:39:53.741Z,2.70
2018-02-03T06:40:53.764Z,2.66
2018-02-03T06:41:53.780Z,2.66
2018-02-03T06:42:53.791Z,2.83
2018-02-03T06:43:53.810Z,2.77
2018-02-03T06:44:53.830Z,2.67
2018-02-03T06:45:53.849Z,2.66
2018-02-03T06:46:53.858Z,2.84
2018-02-03T06:47:53.875Z,2.80
2018-02-03T06:48:53.897Z,2.73
2018-02-03T06:49:53.914Z,2.72
2018-02-03T06:50:53.926Z,2.83
2018-02-03T06:51:53.943Z,2.69
2018-02-03T06:52:53.964Z,2.87
2018-02-03T06:53:53.982Z,2.88
2018-02-03T06:54:53.992Z,2.93
2018-02-03T06:55:54.010Z,2.87
2018-02-03T06:56:54.030Z,2.95
2018-02-03T06:57:54.048Z,2.98
2018-02-03T06:58:54.062Z,2.95
2018-02-03T06:59:54.111Z,3.01
2018-02-03T07:00:54.098Z,3.11
2018-02-03T07:01:54.115Z,3.13
2018-02-03T07:02:54.127Z,3.13
2018-02-03T07:03:54.143Z,3.08
2018-02-03T07:04:54.165Z,3.16
2018-02-03T07:05:54.182Z,3.24
2018-02-03T07:06:54.193Z,3.23
2018-02-03T07:07:54.216Z,3.40
2018-02-03T07:08:54.227Z,3.66
2018-02-03T07:09:54.251Z,3.75
2018-02-03T07:10:54.261Z,3.57
2018-02-03T07:11:54.284Z,3.57
2018-02-03T07:12:54.294Z,3.69
2018-02-03T07:13:54.317Z,3.69
2018-02-03T07:14:54.330Z,3.51
2018-02-03T07:15:54.352Z,3.32
2018-02-03T07:16:54.363Z,3.32
2018-02-03T07:17:54.385Z,3.26
2018-02-03T07:18:54.397Z,3.16
2018-02-03T07:19:54.451Z,3.05
2018-02-03T07:20:54.430Z,3.13
2018-02-03T07:21:54.455Z,3.13
2018-02-03T07:22:54.470Z,3.11
2018-02-03T07:23:54.483Z,3.20
2018-02-03T07:24:54.504Z,3.16
2018-02-03T07:25:54.522Z,3.09
2018-02-03T07:26:54.533Z,3.09
2018-02-03T07:27:54.551Z,3.08
2018-02-03T07:28:54.572Z,3.09
2018-02-03T07:29:54.584Z,3.06
2018-02-03T07:30:54.607Z,3.09
2018-02-03T07:31:54.617Z,3.08
2018-02-03T07:32:54.640Z,3.02
2018-02-03T07:33:54.651Z,3.05
2018-02-03T07:34:54.675Z,3.03
2018-02-03T07:35:54.686Z,3.11
2018-02-03T07:36:54.708Z,3.13
2018-02-03T07:37:54.724Z,3.06
2018-02-03T07:38:54.743Z,3.11
2018-02-03T07:39:54.758Z,3.17
2018-02-03T07:40:54.771Z,3.11
2018-02-03T07:41:54.787Z,3.24
2018-02-03T07:42:54.810Z,3.20
2018-02-03T07:43:54.832Z,3.24
2018-02-03T07:44:54.837Z,3.17
2018-02-03T07:45:54.860Z,3.26
2018-02-03T07:46:54.872Z,3.11
2018-02-03T07:47:54.890Z,3.13
2018-02-03T07:48:54.912Z,3.19
2018-02-03T07:49:54.928Z,3.14
2018-02-03T07:50:54.940Z,3.19
2018-02-03T07:51:54.958Z,3.26
2018-02-03T07:52:54.980Z,3.16
2018-02-03T07:53:54.997Z,3.16
2018-02-03T07:54:55.009Z,3.24
2018-02-03T07:55:55.032Z,3.14
2018-02-03T07:56:55.041Z,3.26
2018-02-03T07:57:55.064Z,3.26
2018-02-03T07:58:55.078Z,3.17
2018-02-03T07:59:55.099Z,3.29
2018-02-03T08:00:55.110Z,3.34
2018-02-03T08:01:55.132Z,3.27
2018-02-03T08:02:55.150Z,3.26
2018-02-03T08:03:55.161Z,3.34
2018-02-03T08:04:55.182Z,3.37
2018-02-03T08:05:55.203Z,3.39
2018-02-03T08:06:55.219Z,3.35
2018-02-03T08:07:55.229Z,3.26
2018-02-03T08:08:55.250Z,3.26
2018-02-03T08:09:55.266Z,3.16
2018-02-03T08:10:55.285Z,3.30
2018-02-03T08:11:55.298Z,3.29
2018-02-03T08:12:55.318Z,3.24
2018-02-03T08:13:55.334Z,3.32
2018-02-03T08:14:55.352Z,3.34
2018-02-03T08:15:55.365Z,3.30
2018-02-03T08:16:55.386Z,3.30
2018-02-03T08:17:55.404Z,3.49
2018-02-03T08:18:55.415Z,3.53
2018-02-03T08:19:55.438Z,3.60
2018-02-03T08:20:55.447Z,3.60
2018-02-03T08:21:55.473Z,3.69
2018-02-03T08:22:55.483Z,3.72
2018-02-03T08:23:55.504Z,3.60
2018-02-03T08:24:55.519Z,3.60
2018-02-03T08:25:55.535Z,3.54
2018-02-03T08:26:55.557Z,3.56
2018-02-03T08:27:55.568Z,3.57
2018-02-03T08:28:55.591Z,3.54
2018-02-03T08:29:55.603Z,3.40
2018-02-03T08:30:55.625Z,3.42
2018-02-03T08:31:55.637Z,3.53
2018-02-03T08:32:55.661Z,3.43
2018-02-03T08:33:55.672Z,3.32
2018-02-03T08:34:55.694Z,3.43
2018-02-03T08:35:55.709Z,3.49
2018-02-03T08:36:55.727Z,3.34
2018-02-03T08:37:55.745Z,3.48
2018-02-03T08:38:55.762Z,3.49
2018-02-03T08:39:55.776Z,3.40
2018-02-03T08:40:55.790Z,3.29
2018-02-03T08:41:55.813Z,3.32
2018-02-03T08:42:55.853Z,3.46
2018-02-03T08:43:55.847Z,3.34
2018-02-03T08:44:55.859Z,3.42
2018-02-03T08:45:55.882Z,3.48
2018-02-03T08:46:55.897Z,3.42
2018-02-03T08:47:55.918Z,3.45
2018-02-03T08:48:55.927Z,3.39
2018-02-03T08:49:55.944Z,3.54
2018-02-03T08:50:55.962Z,3.53
2018-02-03T08:51:55.980Z,3.57
2018-02-03T08:52:56.003Z,3.56
2018-02-03T08:53:56.015Z,3.74
2018-02-03T08:54:56.036Z,3.86
2018-02-03T08:55:56.049Z,4.00
2018-02-03T08:56:56.066Z,3.92
2018-02-03T08:57:56.088Z,3.93
2018-02-03T08:58:56.100Z,3.94
2018-02-03T08:59:56.118Z,3.78
2018-02-03T09:00:56.139Z,3.71
2018-02-03T09:01:56.158Z,3.71
2018-02-03T09:02:56.169Z,3.61
2018-02-03T09:03:56.187Z,3.53
2018-02-03T09:04:56.210Z,3.54
2018-02-03T09:05:56.228Z,3.60
2018-02-03T09:06:56.244Z,3.53
2018-02-03T09:07:56.263Z,3.54
2018-02-03T09:08:56.273Z,3.56
2018-02-03T09:09:56.297Z,3.54
2018-02-03T09:10:56.308Z,3.66
2018-02-03T09:11:56.336Z,3.67
2018-02-03T09:12:56.348Z,3.66
2018-02-03T09:13:56.361Z,3.72
2018-02-03T09:14:56.392Z,3.76
2018-02-03T09:15:56.402Z,3.86
2018-02-03T09:16:56.413Z,3.86
2018-02-03T09:17:56.429Z,3.89
2018-02-03T09:18:56.453Z,3.90
2018-02-03T09:19:56.471Z,3.79
2018-02-03T09:20:56.482Z,3.94
2018-02-03T09:21:56.505Z,3.93
2018-02-03T09:22:56.523Z,3.86
2018-02-03T09:23:56.535Z,3.82
2018-02-03T09:24:56.557Z,3.81
2018-02-03T09:25:56.575Z,3.89
2018-02-03T09:26:56.587Z,3.89
2018-02-03T09:27:56.604Z,3.93
2018-02-03T09:28:56.622Z,3.85
2018-02-03T09:29:56.645Z,3.92
2018-02-03T09:30:56.657Z,3.92
2018-02-03T09:31:56.677Z,4.08
2018-02-03T09:32:56.698Z,4.04
2018-02-03T09:33:56.715Z,4.11
2018-02-03T09:34:56.727Z,4.07
2018-02-03T09:35:56.746Z,4.07
2018-02-03T09:36:56.768Z,4.02
2018-02-03T09:37:56.781Z,4.10
2018-02-03T09:38:56.804Z,4.11
2018-02-03T09:39:56.816Z,4.18
2018-02-03T09:40:56.837Z,4.00
2018-02-03T09:41:56.856Z,4.08
2018-02-03T09:42:56.876Z,4.04
2018-02-03T09:43:56.892Z,4.07
2018-02-03T09:44:56.904Z,3.92
2018-02-03T09:45:56.922Z,3.93
2018-02-03T09:46:56.944Z,3.94
2018-02-03T09:47:56.958Z,3.97
2018-02-03T09:48:56.980Z,4.07
2018-02-03T09:49:56.992Z,4.07
2018-02-03T09:50:57.016Z,4.24
2018-02-03T09:51:57.028Z,4.22
2018-02-03T09:52:57.051Z,4.18
2018-02-03T09:53:57.074Z,4.24
2018-02-03T09:54:57.082Z,4.33
2018-02-03T09:55:57.099Z,4.36
2018-02-03T09:56:57.121Z,4.35
2018-02-03T09:57:57.134Z,4.36
2018-02-03T09:58:57.152Z,4.46
2018-02-03T09:59:57.170Z,4.47
2018-02-03T10:00:57.187Z,4.46
2018-02-03T10:01:57.210Z,4.48
2018-02-03T10:02:57.223Z,4.40
2018-02-03T10:03:57.246Z,4.36
2018-02-03T10:04:57.258Z,4.38
2018-02-03T10:05:57.282Z,4.44
2018-02-03T10:06:57.295Z,4.42
2018-02-03T10:07:57.323Z,4.54
2018-02-03T10:08:57.331Z,4.58
2018-02-03T10:09:57.354Z,4.61
2018-02-03T10:10:57.372Z,4.56
2018-02-03T10:11:57.390Z,4.57
2018-02-03T10:12:57.401Z,4.69
2018-02-03T10:13:57.425Z,4.66
2018-02-03T10:14:57.438Z,4.83
2018-02-03T10:15:57.462Z,4.91
2018-02-03T10:16:57.479Z,4.88
2018-02-03T10:17:57.497Z,4.90
2018-02-03T10:18:57.510Z,4.91
2018-02-03T10:19:57.530Z,5.05
2018-02-03T10:20:57.552Z,4.95
2018-02-03T10:21:57.569Z,5.00
2018-02-03T10:22:57.582Z,4.95
2018-02-03T10:23:57.600Z,4.95
2018-02-03T10:24:57.623Z,4.95
2018-02-03T10:25:57.640Z,5.16
2018-02-03T10:26:57.660Z,5.23
2018-02-03T10:27:57.673Z,5.23
2018-02-03T10:28:57.696Z,5.27
2018-02-03T10:29:57.713Z,5.45
2018-02-03T10:30:57.726Z,5.42
2018-02-03T10:31:57.744Z,5.44
2018-02-03T10:32:57.762Z,5.52
2018-02-03T10:33:57.787Z,5.64
2018-02-03T10:34:57.799Z,5.62
2018-02-03T10:35:57.823Z,5.72
2018-02-03T10:36:57.837Z,5.84
2018-02-03T10:37:57.859Z,5.87
2018-02-03T10:38:57.874Z,6.34
2018-02-03T10:39:57.898Z,6.39
2018-02-03T10:40:57.910Z,6.33
2018-02-03T10:41:57.935Z,6.49
2018-02-03T10:42:57.950Z,6.60
2018-02-03T10:43:57.969Z,6.57
2018-02-03T10:44:57.991Z,6.37
2018-02-03T10:45:58.012Z,6.88
2018-02-03T10:46:58.080Z,7.08
2018-02-03T10:47:58.044Z,6.97
2018-02-03T10:48:58.069Z,6.75
2018-02-03T10:49:58.082Z,6.28
2018-02-03T10:50:58.108Z,6.14
2018-02-03T10:51:58.122Z,6.07
2018-02-03T10:52:58.145Z,6.03
2018-02-03T10:53:58.161Z,5.88
2018-02-03T10:54:58.187Z,5.91
2018-02-03T10:55:58.200Z,6.07
2018-02-03T10:56:58.226Z,6.62
2018-02-03T10:57:58.245Z,7.23
2018-02-03T10:58:58.260Z,6.93
2018-02-03T10:59:58.285Z,6.93
2018-02-03T11:00:58.299Z,7.26
2018-02-03T11:01:58.325Z,6.97
2018-02-03T11:02:58.339Z,6.90
2018-02-03T11:03:58.367Z,6.88
2018-02-03T11:04:58.381Z,7.05
2018-02-03T11:05:58.405Z,6.76
2018-02-03T11:06:58.419Z,6.57
2018-02-03T11:07:58.440Z,6.39
2018-02-03T11:08:58.467Z,6.97
2018-02-03T11:09:58.486Z,7.59
2018-02-03T11:10:58.502Z,8.06
2018-02-03T11:11:58.527Z,7.96
2018-02-03T11:12:58.548Z,7.99
2018-02-03T11:13:58.564Z,7.67
2018-02-03T11:14:58.589Z,7.74
2018-02-03T11:15:58.604Z,8.13
2018-02-03T11:16:58.630Z,8.92
2018-02-03T11:17:58.648Z,8.79
2018-02-03T11:18:58.674Z,8.54
2018-02-03T11:19:58.689Z,8.60
2018-02-03T11:20:58.715Z,9.16
2018-02-03T11:21:58.731Z,8.74
2018-02-03T11:22:58.759Z,8.53
2018-02-03T11:23:58.780Z,7.92
2018-02-03T11:24:58.796Z,7.99
2018-02-03T11:25:58.818Z,8.19
2018-02-03T11:26:58.846Z,8.29
2018-02-03T11:27:58.867Z,9.21
2018-02-03T11:28:58.884Z,10.17
2018-02-03T11:29:58.911Z,9.74
2018-02-03T11:30:58.928Z,9.77
2018-02-03T11:31:58.951Z,9.92
2018-02-03T11:32:58.979Z,9.20
2018-02-03T11:33:59.001Z,8.17
2018-02-03T11:34:59.021Z,7.64
2018-02-03T11:35:59.041Z,8.34
2018-02-03T11:36:59.069Z,8.61
2018-02-03T11:37:59.093Z,8.42
2018-02-03T11:38:59.109Z,7.85
2018-02-03T11:39:59.134Z,7.67
2018-02-03T11:40:59.160Z,8.92
2018-02-03T11:41:59.184Z,10.25
2018-02-03T11:42:59.201Z,10.63
2018-02-03T11:43:59.223Z,11.00
2018-02-03T11:44:59.251Z,10.29
2018-02-03T11:45:59.275Z,9.37
2018-02-03T11:46:59.292Z,8.92
2018-02-03T11:47:59.319Z,8.97
2018-02-03T11:48:59.343Z,8.60
2018-02-03T11:49:59.369Z,8.35
2018-02-03T11:50:59.387Z,8.01
2018-02-03T11:51:59.408Z,7.99
2018-02-03T11:52:59.437Z,7.86
2018-02-03T11:53:59.460Z,7.61
2018-02-03T11:54:59.479Z,7.52
2018-02-03T11:55:59.506Z,7.98
2018-02-03T11:56:59.523Z,9.00
2018-02-03T11:57:59.557Z,9.74
2018-02-03T11:58:59.569Z,9.77
2018-02-03T11:59:59.599Z,10.52
2018-02-03T12:00:59.614Z,10.44
2018-02-03T12:01:59.643Z,11.05
2018-02-03T12:02:59.663Z,11.51
2018-02-03T12:03:59.689Z,11.98
2018-02-03T12:04:59.706Z,11.26
2018-02-03T12:05:59.736Z,10.52
2018-02-03T12:06:59.755Z,9.55
2018-02-03T12:07:59.784Z,9.20
2018-02-03T12:08:59.801Z,9.27
2018-02-03T12:09:59.826Z,8.49
2018-02-03T12:10:59.855Z,8.01
2018-02-03T12:11:59.874Z,7.55
2018-02-03T12:12:59.916Z,7.29
2018-02-03T12:13:59.921Z,7.23
2018-02-03T12:14:59.950Z,7.27
2018-02-03T12:15:59.969Z,7.30
2018-02-03T12:16:59.994Z,7.26
2018-02-03T12:18:00.016Z,7.13
2018-02-03T12:19:00.045Z,7.04
2018-02-03T12:20:00.067Z,6.97
2018-02-03T12:21:00.088Z,6.95
2018-02-03T12:22:00.104Z,6.90
2018-02-03T12:23:00.133Z,6.85
2018-02-03T12:24:00.150Z,6.82
2018-02-03T12:25:00.177Z,6.76
2018-02-03T12:26:00.199Z,6.76
2018-02-03T12:27:00.215Z,6.78
2018-02-03T12:28:00.238Z,6.62
2018-02-03T12:29:00.265Z,6.61
2018-02-03T12:30:00.285Z,6.64
2018-02-03T12:31:00.302Z,6.73
2018-02-03T12:32:00.324Z,6.79
2018-02-03T12:33:00.349Z,6.72
2018-02-03T12:34:00.370Z,6.70
2018-02-03T12:35:00.386Z,6.52
2018-02-03T12:36:00.406Z,6.46
2018-02-03T12:37:00.432Z,6.40
2018-02-03T12:38:00.455Z,6.39
2018-02-03T12:39:00.469Z,6.42
2018-02-03T12:40:00.491Z,6.40
2018-02-03T12:41:00.514Z,6.36
2018-02-03T12:42:00.530Z,6.29
2018-02-03T12:43:00.555Z,6.33
2018-02-03T12:44:00.575Z,6.26
2018-02-03T12:45:00.590Z,6.31
2018-02-03T12:46:00.609Z,6.15
2018-02-03T12:47:00.636Z,6.10
2018-02-03T12:48:00.656Z,6.13
2018-02-03T12:49:00.669Z,6.13
2018-02-03T12:50:00.689Z,6.07
2018-02-03T12:51:00.718Z,6.24
2018-02-03T12:52:00.732Z,6.09
2018-02-03T12:53:00.748Z,6.14
2018-02-03T12:54:00.773Z,6.14
2018-02-03T12:55:00.793Z,6.03
2018-02-03T12:56:00.815Z,6.09
2018-02-03T12:57:00.825Z,6.10
2018-02-03T12:58:00.845Z,6.17
2018-02-03T12:59:00.870Z,6.21
2018-02-03T13:00:00.888Z,6.17
2018-02-03T13:01:00.908Z,6.21
2018-02-03T13:02:00.921Z,6.25
2018-02-03T13:03:00.947Z,6.14
2018-02-03T13:04:00.960Z,6.33
2018-02-03T13:05:00.984Z,6.31
2018-02-03T13:06:01.001Z,6.31
2018-02-03T13:07:01.023Z,6.39
2018-02-03T13:08:01.043Z,6.39
2018-02-03T13:09:01.057Z,6.39
2018-02-03T13:10:01.080Z,6.34
2018-02-03T13:11:01.101Z,6.36
2018-02-03T13:12:01.119Z,6.37
2018-02-03T13:13:01.138Z,6.33
2018-02-03T13:14:01.157Z,6.39
2018-02-03T13:15:01.170Z,6.42
2018-02-03T13:16:01.195Z,6.52
2018-02-03T13:17:01.207Z,6.65
2018-02-03T13:18:01.232Z,6.68
2018-02-03T13:19:01.246Z,6.72